createdAt,value
2018-11-29T00:01:59.006Z,101344.00
2018-11-29T00:04:26.909Z,101346.00
2018-11-29T00:06:54.793Z,101340.00
2018-11-29T00:09:22.697Z,101343.00
2018-11-29T00:11:50.598Z,101330.00
2018-11-29T00:14:18.481Z,101317.00
2018-11-29T00:16:46.377Z,101311.00
2018-11-29T00:19:14.285Z,101302.00
2018-11-29T00:21:42.176Z,101306.00
2018-11-29T00:24:10.117Z,101322.00
2018-11-29T00:26:38.057Z,101313.00
2018-11-29T00:29:05.994Z,101300.00
2018-11-29T00:31:33.873Z,101295.00
2018-11-29T00:34:01.787Z,101300.00
2018-11-29T00:36:29.697Z,101300.00
2018-11-29T00:38:57.593Z,101303.00
2018-11-29T00:41:25.469Z,101300.00
2018-11-29T00:43:53.365Z,101294.00
2018-11-29T00:46:21.246Z,101300.00
2018-11-29T00:48:49.145Z,101294.00
2018-11-29T00:51:17.054Z,101312.00
2018-11-29T00:53:44.933Z,101312.00
2018-11-29T00:56:12.830Z,101314.00
2018-11-29T00:58:40.729Z,101301.00
2018-11-29T01:01:08.626Z,101302.00
2018-11-29T01:03:36.508Z,101309.00
2018-11-29T01:06:04.690Z,101307.00
2018-11-29T01:08:32.593Z,101315.00
2018-11-29T01:11:00.478Z,101311.00
2018-11-29T01:13:28.361Z,101309.00
2018-11-29T01:15:56.257Z,101313.00
2018-11-29T01:18:24.141Z,101312.00
2018-11-29T01:20:52.046Z,101319.00
2018-11-29T01:23:19.921Z,101321.00
2018-11-29T01:25:47.802Z,101324.00
2018-11-29T01:28:15.702Z,101321.00
2018-11-29T01:30:43.606Z,101322.00
2018-11-29T01:33:11.584Z,101326.00
2018-11-29T01:35:39.489Z,101328.00
2018-11-29T01:38:07.381Z,101327.00
2018-11-29T01:40:35.262Z,101320.00
2018-11-29T01:43:03.149Z,101321.00
2018-11-29T01:45:31.033Z,101324.00
2018-11-29T01:47:58.934Z,101327.00
2018-11-29T01:50:26.825Z,101327.00
2018-11-29T01:52:54.729Z,101327.00
2018-11-29T01:55:22.613Z,101318.00
2018-11-29T01:57:50.518Z,101312.00
2018-11-29T02:00:18.604Z,101299.00
2018-11-29T02:02:47.777Z,101295.00
2018-11-29T02:05:15.658Z,101294.00
2018-11-29T02:07:43.533Z,101296.00
2018-11-29T02:10:17.909Z,101293.00
2018-11-29T02:12:45.826Z,101297.00
2018-11-29T02:15:13.713Z,101303.00
2018-11-29T02:17:41.617Z,101296.00
2018-11-29T02:20:13.890Z,101300.00
2018-11-29T02:22:41.777Z,101294.00
2018-11-29T02:25:09.686Z,101297.00
2018-11-29T02:27:37.564Z,101296.00
2018-11-29T02:30:08.944Z,101294.00
2018-11-29T02:32:37.174Z,101293.00
2018-11-29T02:35:05.583Z,101293.00
2018-11-29T02:37:33.475Z,101292.00
2018-11-29T02:40:01.395Z,101294.00
2018-11-29T02:42:29.269Z,101292.00
2018-11-29T02:44:57.201Z,101285.00
2018-11-29T02:47:25.111Z,101292.00
2018-11-29T02:49:52.998Z,101286.00
2018-11-29T02:52:20.910Z,101271.00
2018-11-29T02:54:48.818Z,101272.00
2018-11-29T02:57:16.703Z,101269.00
2018-11-29T02:59:44.609Z,101263.00
2018-11-29T03:02:12.521Z,101261.00
2018-11-29T03:04:40.414Z,101260.00
2018-11-29T03:07:08.321Z,101258.00
2018-11-29T03:09:36.213Z,101249.00
2018-11-29T03:12:04.400Z,101253.00
2018-11-29T03:14:32.294Z,101252.00
2018-11-29T03:17:00.187Z,101258.00
2018-11-29T03:19:28.090Z,101252.00
2018-11-29T03:21:55.998Z,101246.00
2018-11-29T03:24:23.897Z,101241.00
2018-11-29T03:26:51.791Z,101237.00
2018-11-29T03:29:19.686Z,101239.00
2018-11-29T03:31:47.592Z,101231.00
2018-11-29T03:34:15.536Z,101234.00
2018-11-29T03:36:43.425Z,101228.00
2018-11-29T03:39:11.322Z,101233.00
2018-11-29T03:41:39.207Z,101235.00
2018-11-29T03:44:07.109Z,101234.00
2018-11-29T03:46:35.076Z,101230.00
2018-11-29T03:49:02.961Z,101237.00
2018-11-29T03:51:30.873Z,101241.00
2018-11-29T03:53:58.757Z,101236.00
2018-11-29T03:56:26.672Z,101237.00
2018-11-29T03:58:54.565Z,101233.00
2018-11-29T04:01:22.445Z,101234.00
2018-11-29T04:03:50.354Z,101235.00
2018-11-29T04:06:18.265Z,101235.00
2018-11-29T04:08:46.150Z,101227.00
2018-11-29T04:11:14.079Z,101234.00
2018-11-29T04:13:41.964Z,101237.00
2018-11-29T04:16:09.882Z,101240.00
2018-11-29T04:18:37.789Z,101240.00
2018-11-29T04:21:05.693Z,101231.00
2018-11-29T04:23:33.603Z,101234.00
2018-11-29T04:26:01.502Z,101226.00
2018-11-29T04:28:29.434Z,101225.00
2018-11-29T04:30:57.365Z,101223.00
2018-11-29T04:33:25.274Z,101222.00
2018-11-29T04:35:53.183Z,101226.00
2018-11-29T04:38:21.085Z,101227.00
2018-11-29T04:40:48.993Z,101230.00
2018-11-29T04:43:16.901Z,101229.00
2018-11-29T04:45:56.289Z,101227.00
2018-11-29T04:48:24.206Z,101225.00
2018-11-29T04:50:52.100Z,101223.00
2018-11-29T04:53:20.022Z,101216.00
2018-11-29T04:55:47.925Z,101213.00
2018-11-29T04:58:15.821Z,101205.00
2018-11-29T05:00:43.730Z,101199.00
2018-11-29T05:03:11.631Z,101197.00
2018-11-29T05:05:39.546Z,101187.00
2018-11-29T05:08:07.438Z,101182.00
2018-11-29T05:10:35.375Z,101180.00
2018-11-29T05:13:03.261Z,101181.00
2018-11-29T05:15:31.164Z,101184.00
2018-11-29T05:17:59.058Z,101184.00
2018-11-29T05:20:26.963Z,101183.00
2018-11-29T05:22:54.870Z,101181.00
2018-11-29T05:25:22.807Z,101170.00
2018-11-29T05:27:50.886Z,101171.00
2018-11-29T05:30:18.798Z,101165.00
2018-11-29T05:32:46.697Z,101167.00
2018-11-29T05:35:14.594Z,101168.00
2018-11-29T05:37:42.625Z,101165.00
2018-11-29T05:40:11.786Z,101153.00
2018-11-29T05:42:39.726Z,101162.00
2018-11-29T05:45:08.752Z,101163.00
2018-11-29T05:47:36.658Z,101154.00
2018-11-29T05:50:06.429Z,101154.00
2018-11-29T05:52:34.359Z,101157.00
2018-11-29T05:55:02.249Z,101149.00
2018-11-29T05:57:30.169Z,101148.00
2018-11-29T05:59:58.068Z,101158.00
2018-11-29T06:02:25.982Z,101154.00
2018-11-29T06:04:53.886Z,101159.00
2018-11-29T06:07:21.817Z,101162.00
2018-11-29T06:09:49.721Z,101167.00
2018-11-29T06:12:17.641Z,101162.00
2018-11-29T06:14:45.553Z,101163.00
2018-11-29T06:17:13.447Z,101161.00
2018-11-29T06:19:41.362Z,101154.00
2018-11-29T06:22:09.265Z,101158.00
2018-11-29T06:24:37.185Z,101156.00
2018-11-29T06:27:05.085Z,101142.00
2018-11-29T06:29:32.986Z,101143.00
2018-11-29T06:32:00.913Z,101142.00
2018-11-29T06:34:28.834Z,101141.00
2018-11-29T06:36:56.765Z,101140.00
2018-11-29T06:39:24.666Z,101138.00
2018-11-29T06:41:52.566Z,101142.00
2018-11-29T06:44:20.489Z,101148.00
2018-11-29T06:46:48.401Z,101149.00
2018-11-29T06:49:16.315Z,101142.00
2018-11-29T06:51:44.226Z,101148.00
2018-11-29T06:54:12.198Z,101134.00
2018-11-29T06:56:40.098Z,101127.00
2018-11-29T06:59:08.018Z,101124.00
2018-11-29T07:01:36.015Z,101124.00
2018-11-29T07:04:03.942Z,101123.00
2018-11-29T07:06:31.861Z,101114.00
2018-11-29T07:08:59.766Z,101109.00
2018-11-29T07:11:27.694Z,101112.00
2018-11-29T07:13:55.597Z,101116.00
2018-11-29T07:16:23.498Z,101114.00
2018-11-29T07:18:51.415Z,101113.00
2018-11-29T07:21:30.701Z,101112.00
2018-11-29T07:23:58.625Z,101110.00
2018-11-29T07:26:26.577Z,101105.00
2018-11-29T07:28:54.467Z,101102.00
2018-11-29T07:31:22.398Z,101108.00
2018-11-29T07:33:50.286Z,101105.00
2018-11-29T07:36:18.190Z,101112.00
2018-11-29T07:38:46.102Z,101103.00
2018-11-29T07:41:14.004Z,101092.00
2018-11-29T07:43:41.933Z,101081.00
2018-11-29T07:46:09.827Z,101078.00
2018-11-29T07:48:37.749Z,101074.00
2018-11-29T07:51:05.810Z,101070.00
2018-11-29T07:53:34.105Z,101069.00
2018-11-29T07:56:02.006Z,101057.00
2018-11-29T07:58:29.904Z,101067.00
2018-11-29T08:00:57.827Z,101061.00
2018-11-29T08:03:25.749Z,101065.00
2018-11-29T08:05:53.649Z,101049.00
2018-11-29T08:08:21.590Z,101047.00
2018-11-29T08:10:49.490Z,101048.00
2018-11-29T08:13:17.378Z,101051.00
2018-11-29T08:15:45.293Z,101046.00
2018-11-29T08:18:13.195Z,101051.00
2018-11-29T08:20:41.148Z,101039.00
2018-11-29T08:23:09.049Z,101047.00
2018-11-29T08:25:36.971Z,101044.00
2018-11-29T08:28:04.998Z,101033.00
2018-11-29T08:30:32.910Z,101040.00
2018-11-29T08:33:00.829Z,101043.00
2018-11-29T08:35:28.763Z,101057.00
2018-11-29T08:37:56.725Z,101055.00
2018-11-29T08:40:24.641Z,101056.00
2018-11-29T08:42:52.582Z,101059.00
2018-11-29T08:45:20.485Z,101059.00
2018-11-29T08:47:48.381Z,101058.00
2018-11-29T08:50:16.289Z,101060.00
2018-11-29T08:52:45.132Z,101066.00
2018-11-29T08:55:17.122Z,101077.00
2018-11-29T08:57:45.411Z,101083.00
2018-11-29T09:00:15.202Z,101088.00
2018-11-29T09:02:43.113Z,101082.00
2018-11-29T09:05:11.884Z,101079.00
2018-11-29T09:07:39.849Z,101080.00
2018-11-29T09:10:09.325Z,101075.00
2018-11-29T09:12:37.241Z,101089.00
2018-11-29T09:15:06.681Z,101096.00
2018-11-29T09:17:34.597Z,101103.00
2018-11-29T09:20:02.490Z,101108.00
2018-11-29T09:22:30.409Z,101107.00
2018-11-29T09:24:58.318Z,101114.00
2018-11-29T09:27:26.205Z,101115.00
2018-11-29T09:29:54.113Z,101116.00
2018-11-29T09:32:22.028Z,101117.00
2018-11-29T09:34:49.939Z,101117.00
2018-11-29T09:37:17.825Z,101110.00
2018-11-29T09:39:45.734Z,101110.00
2018-11-29T09:42:13.639Z,101113.00
2018-11-29T09:44:41.569Z,101115.00
2018-11-29T09:47:09.483Z,101115.00
2018-11-29T09:49:37.389Z,101118.00
2018-11-29T09:52:05.386Z,101121.00
2018-11-29T09:54:33.273Z,101120.00
2018-11-29T09:57:01.222Z,101119.00
2018-11-29T09:59:29.110Z,101112.00
2018-11-29T10:01:57.006Z,101113.00
2018-11-29T10:04:24.929Z,101104.00
2018-11-29T10:06:52.846Z,101097.00
2018-11-29T10:09:20.753Z,101096.00
2018-11-29T10:11:48.656Z,101093.00
2018-11-29T10:14:16.563Z,101090.00
2018-11-29T10:16:44.481Z,101082.00
2018-11-29T10:19:12.388Z,101084.00
2018-11-29T10:21:40.311Z,101082.00
2018-11-29T10:24:08.221Z,101075.00
2018-11-29T10:26:36.147Z,101068.00
2018-11-29T10:29:04.078Z,101061.00
2018-11-29T10:31:32.046Z,101054.00
2018-11-29T10:33:59.955Z,101046.00
2018-11-29T10:36:27.879Z,101043.00
2018-11-29T10:38:55.781Z,101031.00
2018-11-29T10:41:23.670Z,101019.00
2018-11-29T10:43:51.582Z,101001.00
2018-11-29T10:46:19.602Z,100997.00
2018-11-29T10:48:47.545Z,100982.00
2018-11-29T10:51:15.462Z,100965.00
2018-11-29T10:53:43.353Z,100951.00
2018-11-29T10:56:11.323Z,100939.00
2018-11-29T10:58:39.237Z,100928.00
2018-11-29T11:01:12.414Z,100928.00
2018-11-29T11:03:40.310Z,100928.00
2018-11-29T11:06:08.217Z,100924.00
2018-11-29T11:08:36.114Z,100909.00
2018-11-29T11:11:08.007Z,100912.00
2018-11-29T11:13:37.259Z,100919.00
2018-11-29T11:16:05.721Z,100932.00
2018-11-29T11:18:33.655Z,101067.00
2018-11-29T11:21:01.589Z,101023.00
2018-11-29T11:23:29.525Z,101101.00
2018-11-29T11:25:57.433Z,101052.00
2018-11-29T11:28:25.342Z,101005.00
2018-11-29T11:30:53.242Z,101058.00
2018-11-29T11:33:21.172Z,101073.00
2018-11-29T11:35:49.071Z,101066.00
2018-11-29T11:38:16.961Z,101059.00
2018-11-29T11:40:44.882Z,101060.00
2018-11-29T11:43:12.801Z,100996.00
2018-11-29T11:45:40.682Z,100965.00
2018-11-29T11:48:08.589Z,100951.00
2018-11-29T11:50:36.990Z,100952.00
2018-11-29T11:53:05.654Z,100943.00
2018-11-29T11:55:33.566Z,100923.00
2018-11-29T11:58:01.477Z,100934.00
2018-11-29T12:00:30.207Z,100921.00
2018-11-29T12:03:01.418Z,100923.00
2018-11-29T12:05:29.344Z,100923.00
2018-11-29T12:07:57.262Z,100914.00
2018-11-29T12:10:25.266Z,100906.00
2018-11-29T12:12:53.166Z,100894.00
2018-11-29T12:15:21.066Z,100862.00
2018-11-29T12:17:48.961Z,100828.00
2018-11-29T12:20:20.962Z,100827.00
2018-11-29T12:22:48.866Z,100788.00
2018-11-29T12:25:17.863Z,100774.00
2018-11-29T12:27:45.809Z,100765.00
2018-11-29T12:30:18.910Z,100760.00
2018-11-29T12:32:46.875Z,100719.00
2018-11-29T12:35:15.189Z,100657.00
2018-11-29T12:37:43.131Z,100657.00
2018-11-29T12:40:13.458Z,100714.00
2018-11-29T12:42:41.392Z,100770.00
2018-11-29T12:45:12.048Z,100936.00
2018-11-29T12:47:40.015Z,100922.00
2018-11-29T12:50:40.947Z,100900.00
2018-11-29T12:53:08.854Z,100847.00
2018-11-29T12:55:40.363Z,100835.00
2018-11-29T12:58:08.301Z,100823.00
2018-11-29T13:00:36.501Z,100785.00
2018-11-29T13:05:35.734Z,100760.00
2018-11-29T13:08:03.705Z,100788.00
2018-11-29T13:10:31.758Z,100826.00
2018-11-29T13:12:59.682Z,100837.00
2018-11-29T13:15:28.959Z,100794.00
2018-11-29T13:17:57.823Z,100776.00
2018-11-29T13:20:25.745Z,100771.00
2018-11-29T13:22:53.650Z,100772.00
2018-11-29T13:25:22.651Z,100782.00
2018-11-29T13:27:50.615Z,100771.00
2018-11-29T13:30:19.658Z,100757.00
2018-11-29T13:32:48.277Z,100744.00
2018-11-29T13:35:18.942Z,100737.00
2018-11-29T13:37:51.282Z,100727.00
2018-11-29T13:40:19.218Z,100716.00
2018-11-29T13:42:47.130Z,100746.00
2018-11-29T13:45:15.034Z,100741.00
2018-11-29T13:47:42.934Z,100742.00
2018-11-29T13:50:12.977Z,100732.00
2018-11-29T13:52:40.872Z,100728.00
2018-11-29T13:55:09.838Z,100719.00
2018-11-29T13:57:37.773Z,100714.00
2018-11-29T14:00:10.374Z,100704.00
2018-11-29T14:02:38.286Z,100692.00
2018-11-29T14:05:06.508Z,100674.00
2018-11-29T14:07:34.446Z,100665.00
2018-11-29T14:10:02.350Z,100653.00
2018-11-29T14:12:30.277Z,100651.00
2018-11-29T14:14:58.386Z,100640.00
2018-11-29T14:17:26.393Z,100637.00
2018-11-29T14:19:54.293Z,100626.00
2018-11-29T14:22:22.210Z,100625.00
2018-11-29T14:24:50.137Z,100622.00
2018-11-29T14:27:18.034Z,100615.00
2018-11-29T14:29:45.954Z,100606.00
2018-11-29T14:32:13.909Z,100587.00
2018-11-29T14:34:41.783Z,100576.00
2018-11-29T14:37:09.692Z,100580.00
2018-11-29T14:39:37.649Z,100592.00
2018-11-29T14:42:05.959Z,100611.00
2018-11-29T14:44:33.884Z,100635.00
2018-11-29T14:47:01.777Z,100671.00
2018-11-29T14:49:29.706Z,100690.00
2018-11-29T14:51:57.602Z,100673.00
2018-11-29T14:54:25.517Z,100676.00
2018-11-29T14:56:53.429Z,100669.00
2018-11-29T14:59:21.341Z,100657.00
2018-11-29T15:01:49.226Z,100652.00
2018-11-29T15:04:17.135Z,100662.00
2018-11-29T15:06:45.041Z,100653.00
2018-11-29T15:09:12.976Z,100650.00
2018-11-29T15:11:40.873Z,100656.00
2018-11-29T15:14:08.769Z,100656.00
2018-11-29T15:16:36.705Z,100655.00
2018-11-29T15:19:04.613Z,100653.00
2018-11-29T15:21:32.557Z,100645.00
2018-11-29T15:24:00.457Z,100645.00
2018-11-29T15:26:28.412Z,100653.00
2018-11-29T15:28:56.314Z,100647.00
2018-11-29T15:31:24.238Z,100631.00
2018-11-29T15:33:52.181Z,100624.00
2018-11-29T15:36:20.104Z,100615.00
2018-11-29T15:38:48.070Z,100605.00
2018-11-29T15:41:18.132Z,100610.00
2018-11-29T15:43:43.925Z,100604.00
2018-11-29T15:46:11.841Z,100602.00
2018-11-29T15:48:39.807Z,100592.00
2018-11-29T15:51:07.693Z,100589.00
2018-11-29T15:53:35.578Z,100577.00
2018-11-29T15:56:03.509Z,100582.00
2018-11-29T15:58:31.447Z,100592.00
2018-11-29T16:00:59.381Z,100600.00
2018-11-29T16:03:27.306Z,100605.00
2018-11-29T16:05:55.207Z,100611.00
2018-11-29T16:08:23.142Z,100621.00
2018-11-29T16:10:51.650Z,100622.00
2018-11-29T16:13:19.725Z,100631.00
2018-11-29T16:15:47.638Z,100637.00
2018-11-29T16:18:15.538Z,100641.00
2018-11-29T16:20:43.459Z,100640.00
2018-11-29T16:23:11.349Z,100650.00
2018-11-29T16:25:39.282Z,100655.00
2018-11-29T16:28:08.270Z,100648.00
2018-11-29T16:30:45.875Z,100653.00
2018-11-29T16:33:32.194Z,100653.00
2018-11-29T16:36:00.180Z,100654.00
2018-11-29T16:38:28.141Z,100654.00
2018-11-29T16:40:56.085Z,100640.00
2018-11-29T16:43:24.073Z,100638.00
2018-11-29T16:45:51.989Z,100655.00
2018-11-29T16:48:19.903Z,100670.00
2018-11-29T16:50:47.817Z,100662.00
2018-11-29T16:53:15.725Z,100668.00
2018-11-29T16:55:43.652Z,100670.00
2018-11-29T16:58:13.281Z,100682.00
2018-11-29T17:00:41.209Z,100681.00
2018-11-29T17:03:09.137Z,100689.00
2018-11-29T17:05:37.111Z,100690.00
2018-11-29T17:08:05.267Z,100708.00
2018-11-29T17:10:33.198Z,100715.00
2018-11-29T17:13:03.942Z,100711.00
2018-11-29T17:15:31.899Z,100703.00
2018-11-29T17:17:59.833Z,100713.00
2018-11-29T17:20:27.745Z,100710.00
2018-11-29T17:22:55.677Z,100699.00
2018-11-29T17:25:23.579Z,100710.00
2018-11-29T17:27:51.700Z,100711.00
2018-11-29T17:30:22.469Z,100710.00
2018-11-29T17:32:51.585Z,100701.00
2018-11-29T17:35:19.492Z,100689.00
2018-11-29T17:37:47.385Z,100681.00
2018-11-29T17:40:16.617Z,100676.00
2018-11-29T17:42:44.529Z,100664.00
2018-11-29T17:45:15.674Z,100676.00
2018-11-29T17:47:44.413Z,100675.00
2018-11-29T17:50:15.846Z,100678.00
2018-11-29T17:52:43.762Z,100673.00
2018-11-29T17:55:11.950Z,100657.00
2018-11-29T17:57:39.889Z,100663.00
2018-11-29T18:00:18.670Z,100686.00
2018-11-29T18:02:46.576Z,100687.00
2018-11-29T18:05:14.489Z,100681.00
2018-11-29T18:07:42.405Z,100681.00
2018-11-29T18:10:13.510Z,100678.00
2018-11-29T18:12:41.458Z,100680.00
2018-11-29T18:15:12.925Z,100690.00
2018-11-29T18:17:41.330Z,100696.00
2018-11-29T18:20:10.603Z,100706.00
2018-11-29T18:22:39.217Z,100713.00
2018-11-29T18:25:09.473Z,100710.00
2018-11-29T18:27:37.430Z,100709.00
2018-11-29T18:30:09.669Z,100704.00
2018-11-29T18:32:39.967Z,100705.00
2018-11-29T18:35:07.955Z,100703.00
2018-11-29T18:37:35.889Z,100698.00
2018-11-29T18:40:04.117Z,100698.00
2018-11-29T18:42:32.054Z,100694.00
2018-11-29T18:45:00.014Z,100715.00
2018-11-29T18:47:27.942Z,100710.00
2018-11-29T18:49:55.869Z,100700.00
2018-11-29T18:52:23.781Z,100708.00
2018-11-29T18:54:51.729Z,100707.00
2018-11-29T18:57:19.622Z,100700.00
2018-11-29T18:59:47.513Z,100694.00
2018-11-29T19:02:15.470Z,100690.00
2018-11-29T19:04:43.366Z,100699.00
2018-11-29T19:07:11.269Z,100680.00
2018-11-29T19:09:39.177Z,100676.00
2018-11-29T19:12:07.087Z,100672.00
2018-11-29T19:14:34.995Z,100657.00
2018-11-29T19:17:02.940Z,100663.00
2018-11-29T19:19:30.851Z,100656.00
2018-11-29T19:21:59.045Z,100639.00
2018-11-29T19:24:26.963Z,100634.00
2018-11-29T19:26:54.944Z,100630.00
2018-11-29T19:29:22.877Z,100624.00
2018-11-29T19:31:50.836Z,100627.00
2018-11-29T19:34:18.737Z,100632.00
2018-11-29T19:36:46.650Z,100638.00
2018-11-29T19:39:14.557Z,100631.00
2018-11-29T19:41:42.505Z,100615.00
2018-11-29T19:44:10.402Z,100605.00
2018-11-29T19:46:38.459Z,100607.00
2018-11-29T19:49:06.311Z,100614.00
2018-11-29T19:51:34.274Z,100624.00
2018-11-29T19:54:02.190Z,100615.00
2018-11-29T19:56:30.105Z,100607.00
2018-11-29T19:58:58.050Z,100597.00
2018-11-29T20:01:25.946Z,100595.00
2018-11-29T20:03:53.853Z,100604.00
2018-11-29T20:06:21.787Z,100614.00
2018-11-29T20:08:49.686Z,100636.00
2018-11-29T20:11:17.601Z,100644.00
2018-11-29T20:13:45.521Z,100651.00
2018-11-29T20:16:13.429Z,100651.00
2018-11-29T20:18:41.321Z,100634.00
2018-11-29T20:21:09.241Z,100645.00
2018-11-29T20:23:37.183Z,100643.00
2018-11-29T20:26:05.126Z,100640.00
2018-11-29T20:28:33.986Z,100648.00
2018-11-29T20:31:01.901Z,100644.00
2018-11-29T20:33:29.829Z,100651.00
2018-11-29T20:35:57.788Z,100643.00
2018-11-29T20:38:25.677Z,100628.00
2018-11-29T20:40:53.589Z,100624.00
2018-11-29T20:43:21.595Z,100616.00
2018-11-29T20:45:51.491Z,100604.00
2018-11-29T20:48:20.902Z,100598.00
2018-11-29T20:50:49.271Z,100622.00
2018-11-29T20:53:21.034Z,100621.00
2018-11-29T20:55:48.927Z,100621.00
2018-11-29T20:58:16.841Z,100633.00
2018-11-29T21:00:44.751Z,100632.00
2018-11-29T21:03:12.666Z,100629.00
2018-11-29T21:05:41.906Z,100621.00
2018-11-29T21:08:10.693Z,100622.00
2018-11-29T21:10:38.597Z,100615.00
2018-11-29T21:13:07.062Z,100607.00
2018-11-29T21:15:36.472Z,100598.00
2018-11-29T21:18:04.482Z,100599.00
2018-11-29T21:20:32.406Z,100593.00
2018-11-29T21:23:00.730Z,100595.00
2018-11-29T21:25:28.678Z,100603.00
2018-11-29T21:27:56.605Z,100606.00
2018-11-29T21:30:24.534Z,100612.00
2018-11-29T21:32:52.429Z,100623.00
2018-11-29T21:35:21.632Z,100629.00
2018-11-29T21:37:50.429Z,100642.00
2018-11-29T21:40:23.894Z,100651.00
2018-11-29T21:42:51.792Z,100650.00
2018-11-29T21:45:19.681Z,100663.00
2018-11-29T21:47:47.597Z,100659.00
2018-11-29T21:50:15.480Z,100662.00
2018-11-29T21:52:43.389Z,100658.00
2018-11-29T21:55:11.286Z,100660.00
2018-11-29T21:57:39.206Z,100661.00
2018-11-29T22:00:12.385Z,100653.00
2018-11-29T22:02:41.859Z,100656.00
2018-11-29T22:05:09.669Z,100644.00
2018-11-29T22:07:37.590Z,100642.00
2018-11-29T22:10:05.551Z,100643.00
2018-11-29T22:12:33.500Z,100639.00
2018-11-29T22:15:01.378Z,100636.00
2018-11-29T22:17:29.301Z,100642.00
2018-11-29T22:19:58.403Z,100640.00
2018-11-29T22:22:32.199Z,100630.00
2018-11-29T22:25:00.255Z,100632.00
2018-11-29T22:27:28.153Z,100630.00
2018-11-29T22:29:56.062Z,100643.00
2018-11-29T22:32:24.069Z,100637.00
2018-11-29T22:34:51.981Z,100637.00
2018-11-29T22:37:19.886Z,100638.00
2018-11-29T22:39:47.841Z,100644.00
2018-11-29T22:42:15.788Z,100647.00
2018-11-29T22:44:43.689Z,100654.00
2018-11-29T22:47:11.602Z,100658.00
2018-11-29T22:49:39.545Z,100660.00
2018-11-29T22:52:07.429Z,100657.00
2018-11-29T22:54:35.342Z,100658.00
2018-11-29T22:57:03.267Z,100657.00
2018-11-29T22:59:31.158Z,100657.00
2018-11-29T23:01:59.083Z,100652.00
2018-11-29T23:04:27.047Z,100642.00
2018-11-29T23:06:54.968Z,100641.00
2018-11-29T23:09:22.915Z,100640.00
2018-11-29T23:11:50.842Z,100637.00
2018-11-29T23:14:18.753Z,100634.00
2018-11-29T23:16:46.735Z,100635.00
2018-11-29T23:19:14.637Z,100640.00
2018-11-29T23:21:42.533Z,100641.00
2018-11-29T23:24:10.457Z,100637.00
2018-11-29T23:26:38.349Z,100631.00
2018-11-29T23:29:06.445Z,100617.00
2018-11-29T23:31:34.345Z,100616.00
2018-11-29T23:34:02.291Z,100612.00
2018-11-29T23:36:30.197Z,100614.00
2018-11-29T23:38:58.102Z,100617.00
2018-11-29T23:41:26.102Z,100616.00
2018-11-29T23:43:54.070Z,100618.00
2018-11-29T23:46:22.042Z,100623.00
2018-11-29T23:48:49.969Z,100624.00
2018-11-29T23:51:17.911Z,100622.00
2018-11-29T23:53:45.872Z,100621.00
2018-11-29T23:56:13.765Z,100624.00
2018-11-29T23:58:41.689Z,100621.00
